Terminal Aerodrome Forecast
Issued by NWS Blacksburg, VA

Current Version | Previous Version | Text Only | Print | Product List | Glossary Off
Versions: 1 2 3 4 5 6 7 8 9 10 11 12 13 14 15 16 17 18 19 20 21 22 23 24 25 26 27

000
FTUS41 KRNK 220822 AAA
TAFBLF
TAF AMD
KBLF 220822Z 2208/2306 08003KT P6SM SCT007 BKN025
      TEMPO 2208/2209 5SM -RA SCT010 BKN015
     FM220900 19005KT 3SM BR OVC005
     FM221400 26006KT P6SM BKN025
     FM221800 29007KT P6SM BKN050
     FM230000 VRB03KT P6SM BKN100=

USA.gov is the U.S. government's official web portal to all federal, state and local government web resources and services.